Aérodrome :
LOGIN :

S'inscrire | Disclaimer

   EN    FR    IT 

 










Légende :    VFR   VFR Marginal   IFR   IFR Intensif   IFR Très Intensif
Visi : 
Plafond : 
>= 8 km
>= 3000ft
5 à 8 km
1000 à 3000 ft
1500m à 5 km
500 à 1000 ft
800 à 1500m
200 à 500 ft
< 800m
< 200 ft
Symboles :   Orages  Brouillard  Fortes neiges  Fortes précipitations  Vent > 20 kt
SIGMETs :   Divers  Orages  Givrage  Turbulence  Onde Orograph.  Cendres Volcan.






- Altitude de l'aérodrome : 202 ft
- Code IATA : LGW


EGKK - London Gatwick

DERNIER METAR :
  • 160550Z 24006KT 190V280 9000 -SHRA SCT013 BKN044 10/09 Q0999

METARs EXPIRÉS :
  • 160520Z 20004KT 8000 FEW021 09/08 Q0999
  • 160450Z 22003KT 6000 FEW028 09/08 Q0999
  • 160420Z 21004KT 6000 FEW019 08/08 Q0999
  • 160350Z 21003KT 6000 FEW012 08/08 Q0999
  • 160320Z 21006KT 7000 FEW012 09/08 Q0999

TAF TAF EGKK
Valide du 16 à 06h jusqu'au 17 à 12h UTC


160453Z 1606/1712 22008KT 9999 SCT025
TEMPO 1606/1622 6000 SHRA
PROB30
TEMPO 1606/1607 BKN008
PROB30
TEMPO 1610/1620 3000 +TSRAGS BKN014 BKN020CB
PROB40
TEMPO 1620/1708 BKN010
TEMPO 1703/1712 6000 SHRA
BECMG 1706/1709 29010KT
PROB30
TEMPO 1710/1712 4000 +SHRA



MET'MAP, la Météo Aéronautique d'un coup d'oeil ! - Copyright ORBIFLY Décembre 2007 - Disclaimer

ORBIFLY MET'MAP TEAM :

Programmation & Développement : Alexandra Zaïnal
Sur une idée originale de : Baudouin d'Aumeries
Assistance à la programmation : Marc-Olivier Méhu
Soutien technique & logistique : Manuel Goepfert

Contact : metmap@orbifly.com




SOURCES & CREDITS :

   NOAA